sensor_id;sensor_type;location;lat;lon;timestamp;temperature;humidity
12849;DHT22;6493;50.928;7.172;2023-06-19T00:04:20;20.10;39.70
12849;DHT22;6493;50.928;7.172;2023-06-19T00:09:24;20.10;39.80
12849;DHT22;6493;50.928;7.172;2023-06-19T00:14:29;20.10;39.80
12849;DHT22;6493;50.928;7.172;2023-06-19T00:19:33;20.00;39.90
12849;DHT22;6493;50.928;7.172;2023-06-19T00:24:38;20.00;39.90
12849;DHT22;6493;50.928;7.172;2023-06-19T00:29:43;20.00;40.00
12849;DHT22;6493;50.928;7.172;2023-06-19T00:34:47;19.90;40.10
12849;DHT22;6493;50.928;7.172;2023-06-19T00:39:50;19.90;40.20
12849;DHT22;6493;50.928;7.172;2023-06-19T00:44:55;19.90;40.80
12849;DHT22;6493;50.928;7.172;2023-06-19T00:49:59;19.90;40.40
12849;DHT22;6493;50.928;7.172;2023-06-19T00:55:03;19.90;40.40
12849;DHT22;6493;50.928;7.172;2023-06-19T01:00:10;19.90;40.40
12849;DHT22;6493;50.928;7.172;2023-06-19T01:05:15;19.80;40.50
12849;DHT22;6493;50.928;7.172;2023-06-19T01:10:22;19.80;40.50
12849;DHT22;6493;50.928;7.172;2023-06-19T01:15:29;19.80;40.70
12849;DHT22;6493;50.928;7.172;2023-06-19T01:20:33;19.80;41.00
12849;DHT22;6493;50.928;7.172;2023-06-19T01:25:38;19.80;40.80
12849;DHT22;6493;50.928;7.172;2023-06-19T01:30:42;19.80;40.80
12849;DHT22;6493;50.928;7.172;2023-06-19T01:35:46;19.80;40.80
12849;DHT22;6493;50.928;7.172;2023-06-19T01:40:53;19.80;41.20
12849;DHT22;6493;50.928;7.172;2023-06-19T01:45:58;19.80;41.10
12849;DHT22;6493;50.928;7.172;2023-06-19T01:51:03;19.80;41.10
12849;DHT22;6493;50.928;7.172;2023-06-19T01:56:08;19.70;41.10
12849;DHT22;6493;50.928;7.172;2023-06-19T02:01:12;19.60;41.10
12849;DHT22;6493;50.928;7.172;2023-06-19T02:06:16;19.60;41.10
12849;DHT22;6493;50.928;7.172;2023-06-19T02:11:21;19.50;41.40
12849;DHT22;6493;50.928;7.172;2023-06-19T02:16:24;19.50;41.50
12849;DHT22;6493;50.928;7.172;2023-06-19T02:21:30;19.40;41.50
12849;DHT22;6493;50.928;7.172;2023-06-19T02:26:35;19.40;41.50
12849;DHT22;6493;50.928;7.172;2023-06-19T02:31:38;19.50;41.70
12849;DHT22;6493;50.928;7.172;2023-06-19T02:36:42;19.40;41.90
12849;DHT22;6493;50.928;7.172;2023-06-19T02:41:51;19.40;41.70
12849;DHT22;6493;50.928;7.172;2023-06-19T02:46:54;19.40;41.70
12849;DHT22;6493;50.928;7.172;2023-06-19T02:51:58;19.40;41.70
12849;DHT22;6493;50.928;7.172;2023-06-19T02:57:03;19.40;41.80
12849;DHT22;6493;50.928;7.172;2023-06-19T03:02:07;19.40;41.90
12849;DHT22;6493;50.928;7.172;2023-06-19T03:07:10;19.50;42.10
12849;DHT22;6493;50.928;7.172;2023-06-19T03:12:17;19.40;41.90
12849;DHT22;6493;50.928;7.172;2023-06-19T03:17:21;19.40;42.00
12849;DHT22;6493;50.928;7.172;2023-06-19T03:22:24;19.40;42.00
12849;DHT22;6493;50.928;7.172;2023-06-19T03:27:29;19.40;42.10
12849;DHT22;6493;50.928;7.172;2023-06-19T03:32:34;19.30;42.10
12849;DHT22;6493;50.928;7.172;2023-06-19T03:37:38;19.30;42.10
12849;DHT22;6493;50.928;7.172;2023-06-19T03:42:49;19.30;42.30
12849;DHT22;6493;50.928;7.172;2023-06-19T03:47:53;19.20;42.30
12849;DHT22;6493;50.928;7.172;2023-06-19T03:52:57;19.20;42.40
12849;DHT22;6493;50.928;7.172;2023-06-19T03:58:02;19.10;42.60
12849;DHT22;6493;50.928;7.172;2023-06-19T04:03:07;19.00;42.60
12849;DHT22;6493;50.928;7.172;2023-06-19T04:08:12;19.00;42.80
12849;DHT22;6493;50.928;7.172;2023-06-19T04:13:19;19.00;42.80
12849;DHT22;6493;50.928;7.172;2023-06-19T04:18:23;19.00;43.10
12849;DHT22;6493;50.928;7.172;2023-06-19T04:23:27;19.10;43.50
12849;DHT22;6493;50.928;7.172;2023-06-19T04:28:32;19.30;43.70
12849;DHT22;6493;50.928;7.172;2023-06-19T04:33:35;19.40;43.50
12849;DHT22;6493;50.928;7.172;2023-06-19T04:38:39;19.50;43.40
12849;DHT22;6493;50.928;7.172;2023-06-19T04:43:44;19.50;43.50
12849;DHT22;6493;50.928;7.172;2023-06-19T04:48:47;19.50;44.10
12849;DHT22;6493;50.928;7.172;2023-06-19T04:53:53;19.40;43.40
12849;DHT22;6493;50.928;7.172;2023-06-19T04:58:58;19.30;43.40
12849;DHT22;6493;50.928;7.172;2023-06-19T05:04:03;19.30;43.90
12849;DHT22;6493;50.928;7.172;2023-06-19T05:09:07;19.40;44.40
12849;DHT22;6493;50.928;7.172;2023-06-19T05:14:12;19.50;44.20
12849;DHT22;6493;50.928;7.172;2023-06-19T05:19:16;19.50;44.20
12849;DHT22;6493;50.928;7.172;2023-06-19T05:24:20;19.40;44.20
12849;DHT22;6493;50.928;7.172;2023-06-19T05:29:25;19.40;44.80
12849;DHT22;6493;50.928;7.172;2023-06-19T05:34:29;19.20;44.20
12849;DHT22;6493;50.928;7.172;2023-06-19T05:39:32;19.10;44.50
12849;DHT22;6493;50.928;7.172;2023-06-19T05:44:37;19.00;44.40
12849;DHT22;6493;50.928;7.172;2023-06-19T05:49:43;19.00;44.70
12849;DHT22;6493;50.928;7.172;2023-06-19T05:54:47;19.10;45.00
12849;DHT22;6493;50.928;7.172;2023-06-19T05:59:52;19.40;46.30
12849;DHT22;6493;50.928;7.172;2023-06-19T06:04:56;20.00;47.30
12849;DHT22;6493;50.928;7.172;2023-06-19T06:10:00;21.00;47.80
12849;DHT22;6493;50.928;7.172;2023-06-19T06:15:06;21.90;47.50
12849;DHT22;6493;50.928;7.172;2023-06-19T06:20:10;22.60;47.00
12849;DHT22;6493;50.928;7.172;2023-06-19T06:25:15;23.20;45.90
12849;DHT22;6493;50.928;7.172;2023-06-19T06:30:20;23.30;44.80
12849;DHT22;6493;50.928;7.172;2023-06-19T06:35:24;23.50;44.70
12849;DHT22;6493;50.928;7.172;2023-06-19T06:40:27;23.50;44.70
12849;DHT22;6493;50.928;7.172;2023-06-19T06:45:32;23.70;44.60
12849;DHT22;6493;50.928;7.172;2023-06-19T06:50:36;24.00;45.00
12849;DHT22;6493;50.928;7.172;2023-06-19T06:55:39;24.30;44.50
12849;DHT22;6493;50.928;7.172;2023-06-19T07:00:44;24.30;43.80
12849;DHT22;6493;50.928;7.172;2023-06-19T07:05:48;24.20;43.60
12849;DHT22;6493;50.928;7.172;2023-06-19T07:10:52;24.00;43.20
12849;DHT22;6493;50.928;7.172;2023-06-19T07:15:57;23.70;43.00
12849;DHT22;6493;50.928;7.172;2023-06-19T07:21:03;23.50;43.30
12849;DHT22;6493;50.928;7.172;2023-06-19T07:26:09;23.20;43.40
12849;DHT22;6493;50.928;7.172;2023-06-19T07:31:14;23.10;43.60
12849;DHT22;6493;50.928;7.172;2023-06-19T07:36:17;22.90;43.60
12849;DHT22;6493;50.928;7.172;2023-06-19T07:41:21;22.90;43.80
12849;DHT22;6493;50.928;7.172;2023-06-19T07:46:26;22.80;43.90
12849;DHT22;6493;50.928;7.172;2023-06-19T07:51:30;22.80;43.80
12849;DHT22;6493;50.928;7.172;2023-06-19T07:56:33;22.70;43.70
12849;DHT22;6493;50.928;7.172;2023-06-19T08:01:38;22.60;43.50
12849;DHT22;6493;50.928;7.172;2023-06-19T08:06:42;22.50;44.30
12849;DHT22;6493;50.928;7.172;2023-06-19T08:11:45;22.40;43.70
12849;DHT22;6493;50.928;7.172;2023-06-19T08:16:50;22.40;43.70
12849;DHT22;6493;50.928;7.172;2023-06-19T08:21:54;22.20;43.60
12849;DHT22;6493;50.928;7.172;2023-06-19T08:26:58;22.10;43.70
12849;DHT22;6493;50.928;7.172;2023-06-19T08:32:03;22.00;43.70
12849;DHT22;6493;50.928;7.172;2023-06-19T08:37:07;22.00;43.80
12849;DHT22;6493;50.928;7.172;2023-06-19T08:42:11;21.90;43.90
12849;DHT22;6493;50.928;7.172;2023-06-19T08:47:16;22.10;44.10
12849;DHT22;6493;50.928;7.172;2023-06-19T08:52:20;22.10;44.10
12849;DHT22;6493;50.928;7.172;2023-06-19T08:57:33;22.30;44.10
12849;DHT22;6493;50.928;7.172;2023-06-19T09:02:43;22.30;44.20
12849;DHT22;6493;50.928;7.172;2023-06-19T09:07:55;22.50;44.30
12849;DHT22;6493;50.928;7.172;2023-06-19T09:12:59;22.80;44.40
12849;DHT22;6493;50.928;7.172;2023-06-19T09:18:06;23.00;44.30
12849;DHT22;6493;50.928;7.172;2023-06-19T09:23:10;23.20;44.10
12849;DHT22;6493;50.928;7.172;2023-06-19T09:28:22;23.30;44.00
12849;DHT22;6493;50.928;7.172;2023-06-19T09:33:30;23.40;44.10
12849;DHT22;6493;50.928;7.172;2023-06-19T09:38:36;23.50;44.00
12849;DHT22;6493;50.928;7.172;2023-06-19T09:43:43;23.60;43.70
12849;DHT22;6493;50.928;7.172;2023-06-19T09:48:52;23.70;43.90
12849;DHT22;6493;50.928;7.172;2023-06-19T09:53:57;23.90;43.70
12849;DHT22;6493;50.928;7.172;2023-06-19T09:59:01;24.00;43.50
12849;DHT22;6493;50.928;7.172;2023-06-19T10:04:08;24.00;43.40
12849;DHT22;6493;50.928;7.172;2023-06-19T10:09:15;24.10;43.30
12849;DHT22;6493;50.928;7.172;2023-06-19T10:14:21;24.20;44.00
12849;DHT22;6493;50.928;7.172;2023-06-19T10:19:28;24.40;43.40
12849;DHT22;6493;50.928;7.172;2023-06-19T10:24:32;24.50;43.00
12849;DHT22;6493;50.928;7.172;2023-06-19T10:29:40;24.60;42.80
12849;DHT22;6493;50.928;7.172;2023-06-19T10:34:53;24.70;42.60
12849;DHT22;6493;50.928;7.172;2023-06-19T10:39:58;24.70;42.30
12849;DHT22;6493;50.928;7.172;2023-06-19T10:45:03;24.80;42.30
12849;DHT22;6493;50.928;7.172;2023-06-19T10:50:13;24.90;42.60
12849;DHT22;6493;50.928;7.172;2023-06-19T10:55:16;25.20;42.80
12849;DHT22;6493;50.928;7.172;2023-06-19T11:00:24;25.40;42.50
12849;DHT22;6493;50.928;7.172;2023-06-19T11:05:29;25.60;42.10
12849;DHT22;6493;50.928;7.172;2023-06-19T11:10:33;25.70;42.00
12849;DHT22;6493;50.928;7.172;2023-06-19T11:15:37;25.90;41.80
12849;DHT22;6493;50.928;7.172;2023-06-19T11:20:46;26.00;41.50
12849;DHT22;6493;50.928;7.172;2023-06-19T11:25:52;26.20;41.50
12849;DHT22;6493;50.928;7.172;2023-06-19T11:30:58;26.40;41.70
12849;DHT22;6493;50.928;7.172;2023-06-19T11:36:05;26.60;41.30
12849;DHT22;6493;50.928;7.172;2023-06-19T11:41:09;26.70;40.80
12849;DHT22;6493;50.928;7.172;2023-06-19T11:46:14;26.60;40.30
12849;DHT22;6493;50.928;7.172;2023-06-19T11:51:19;26.60;40.30
12849;DHT22;6493;50.928;7.172;2023-06-19T11:56:23;26.60;40.20
12849;DHT22;6493;50.928;7.172;2023-06-19T12:01:27;26.60;40.00
12849;DHT22;6493;50.928;7.172;2023-06-19T12:06:32;26.70;40.00
12849;DHT22;6493;50.928;7.172;2023-06-19T12:11:37;26.80;40.00
12849;DHT22;6493;50.928;7.172;2023-06-19T12:16:41;26.80;39.60
12849;DHT22;6493;50.928;7.172;2023-06-19T12:21:46;26.80;39.40
12849;DHT22;6493;50.928;7.172;2023-06-19T12:26:49;26.70;39.50
12849;DHT22;6493;50.928;7.172;2023-06-19T12:31:59;26.80;39.60
12849;DHT22;6493;50.928;7.172;2023-06-19T12:37:05;26.80;38.80
12849;DHT22;6493;50.928;7.172;2023-06-19T12:42:10;26.90;39.10
12849;DHT22;6493;50.928;7.172;2023-06-19T12:47:15;27.00;38.90
12849;DHT22;6493;50.928;7.172;2023-06-19T12:52:21;27.00;38.60
12849;DHT22;6493;50.928;7.172;2023-06-19T12:57:25;27.10;38.60
12849;DHT22;6493;50.928;7.172;2023-06-19T13:02:29;27.10;38.60
12849;DHT22;6493;50.928;7.172;2023-06-19T13:07:35;27.20;38.60
12849;DHT22;6493;50.928;7.172;2023-06-19T13:12:38;27.30;38.30
12849;DHT22;6493;50.928;7.172;2023-06-19T13:17:42;27.20;38.00
12849;DHT22;6493;50.928;7.172;2023-06-19T13:22:47;27.30;38.10
12849;DHT22;6493;50.928;7.172;2023-06-19T13:27:50;27.20;38.60
12849;DHT22;6493;50.928;7.172;2023-06-19T13:32:54;27.30;38.70
12849;DHT22;6493;50.928;7.172;2023-06-19T13:37:59;27.40;38.10
12849;DHT22;6493;50.928;7.172;2023-06-19T13:43:03;27.40;38.00
12849;DHT22;6493;50.928;7.172;2023-06-19T13:48:08;27.50;37.80
12849;DHT22;6493;50.928;7.172;2023-06-19T13:53:13;27.50;37.50
12849;DHT22;6493;50.928;7.172;2023-06-19T13:58:17;27.50;37.50
12849;DHT22;6493;50.928;7.172;2023-06-19T14:03:21;27.50;37.50
12849;DHT22;6493;50.928;7.172;2023-06-19T14:08:28;27.50;37.40
12849;DHT22;6493;50.928;7.172;2023-06-19T14:13:32;27.50;37.40
12849;DHT22;6493;50.928;7.172;2023-06-19T14:18:35;27.50;37.40
12849;DHT22;6493;50.928;7.172;2023-06-19T14:23:41;27.60;37.40
12849;DHT22;6493;50.928;7.172;2023-06-19T14:28:46;27.60;37.70
12849;DHT22;6493;50.928;7.172;2023-06-19T14:33:50;27.60;37.00
12849;DHT22;6493;50.928;7.172;2023-06-19T14:38:55;27.60;36.80
12849;DHT22;6493;50.928;7.172;2023-06-19T14:43:58;27.60;37.00
12849;DHT22;6493;50.928;7.172;2023-06-19T14:49:02;27.70;37.10
12849;DHT22;6493;50.928;7.172;2023-06-19T14:54:07;27.80;37.10
12849;DHT22;6493;50.928;7.172;2023-06-19T14:59:11;27.90;37.00
12849;DHT22;6493;50.928;7.172;2023-06-19T15:04:14;27.90;36.70
12849;DHT22;6493;50.928;7.172;2023-06-19T15:09:20;28.00;36.60
12849;DHT22;6493;50.928;7.172;2023-06-19T15:14:24;28.00;36.50
12849;DHT22;6493;50.928;7.172;2023-06-19T15:19:27;28.10;36.30
12849;DHT22;6493;50.928;7.172;2023-06-19T15:24:32;28.10;36.20
12849;DHT22;6493;50.928;7.172;2023-06-19T15:29:36;28.10;35.90
12849;DHT22;6493;50.928;7.172;2023-06-19T15:34:41;28.10;35.80
12849;DHT22;6493;50.928;7.172;2023-06-19T15:39:45;28.10;35.80
12849;DHT22;6493;50.928;7.172;2023-06-19T15:44:49;28.10;35.60
12849;DHT22;6493;50.928;7.172;2023-06-19T15:49:53;28.00;35.30
12849;DHT22;6493;50.928;7.172;2023-06-19T15:54:58;27.90;35.40
12849;DHT22;6493;50.928;7.172;2023-06-19T16:00:01;27.80;35.20
12849;DHT22;6493;50.928;7.172;2023-06-19T16:05:14;27.70;35.30
12849;DHT22;6493;50.928;7.172;2023-06-19T16:10:20;27.70;35.40
12849;DHT22;6493;50.928;7.172;2023-06-19T16:15:24;27.60;35.30
12849;DHT22;6493;50.928;7.172;2023-06-19T16:20:30;27.60;35.30
12849;DHT22;6493;50.928;7.172;2023-06-19T16:25:35;27.50;35.20
12849;DHT22;6493;50.928;7.172;2023-06-19T16:30:38;27.50;35.40
12849;DHT22;6493;50.928;7.172;2023-06-19T16:35:42;27.40;35.30
12849;DHT22;6493;50.928;7.172;2023-06-19T16:40:47;27.40;35.20
12849;DHT22;6493;50.928;7.172;2023-06-19T16:45:51;27.30;35.10
12849;DHT22;6493;50.928;7.172;2023-06-19T16:50:54;27.20;35.10
12849;DHT22;6493;50.928;7.172;2023-06-19T16:55:59;27.10;35.10
12849;DHT22;6493;50.928;7.172;2023-06-19T17:01:03;27.10;35.10
12849;DHT22;6493;50.928;7.172;2023-06-19T17:06:07;27.00;35.20
12849;DHT22;6493;50.928;7.172;2023-06-19T17:11:11;26.90;35.20
12849;DHT22;6493;50.928;7.172;2023-06-19T17:16:22;26.90;35.10
12849;DHT22;6493;50.928;7.172;2023-06-19T17:21:25;26.80;35.10
12849;DHT22;6493;50.928;7.172;2023-06-19T17:26:30;26.70;35.10
12849;DHT22;6493;50.928;7.172;2023-06-19T17:31:34;26.60;35.20
12849;DHT22;6493;50.928;7.172;2023-06-19T17:36:38;26.50;35.20
12849;DHT22;6493;50.928;7.172;2023-06-19T17:41:43;26.50;35.20
12849;DHT22;6493;50.928;7.172;2023-06-19T17:46:47;26.30;35.20
12849;DHT22;6493;50.928;7.172;2023-06-19T17:51:50;26.20;35.30
12849;DHT22;6493;50.928;7.172;2023-06-19T17:56:55;26.00;35.30
12849;DHT22;6493;50.928;7.172;2023-06-19T18:01:59;25.80;35.30
12849;DHT22;6493;50.928;7.172;2023-06-19T18:07:03;25.70;35.40
12849;DHT22;6493;50.928;7.172;2023-06-19T18:12:09;25.60;35.50
12849;DHT22;6493;50.928;7.172;2023-06-19T18:17:14;25.40;35.50
12849;DHT22;6493;50.928;7.172;2023-06-19T18:22:18;25.30;35.70
12849;DHT22;6493;50.928;7.172;2023-06-19T18:27:23;25.20;35.80
12849;DHT22;6493;50.928;7.172;2023-06-19T18:32:26;25.20;35.90
12849;DHT22;6493;50.928;7.172;2023-06-19T18:37:30;25.10;35.90
12849;DHT22;6493;50.928;7.172;2023-06-19T18:42:35;25.00;36.00
12849;DHT22;6493;50.928;7.172;2023-06-19T18:47:39;24.90;36.00
12849;DHT22;6493;50.928;7.172;2023-06-19T18:52:42;24.70;36.10
12849;DHT22;6493;50.928;7.172;2023-06-19T18:57:47;24.60;36.20
12849;DHT22;6493;50.928;7.172;2023-06-19T19:02:53;24.50;36.30
12849;DHT22;6493;50.928;7.172;2023-06-19T19:07:56;24.50;36.40
12849;DHT22;6493;50.928;7.172;2023-06-19T19:13:01;24.40;36.50
12849;DHT22;6493;50.928;7.172;2023-06-19T19:18:05;24.30;36.60
12849;DHT22;6493;50.928;7.172;2023-06-19T19:23:11;24.20;36.60
12849;DHT22;6493;50.928;7.172;2023-06-19T19:28:15;24.20;36.80
12849;DHT22;6493;50.928;7.172;2023-06-19T19:33:19;24.00;37.50
12849;DHT22;6493;50.928;7.172;2023-06-19T19:38:23;23.90;37.60
12849;DHT22;6493;50.928;7.172;2023-06-19T19:43:28;23.80;37.10
12849;DHT22;6493;50.928;7.172;2023-06-19T19:48:31;23.70;37.20
12849;DHT22;6493;50.928;7.172;2023-06-19T19:53:35;23.60;37.30
12849;DHT22;6493;50.928;7.172;2023-06-19T19:58:40;23.60;37.50
12849;DHT22;6493;50.928;7.172;2023-06-19T20:03:44;23.50;37.60
12849;DHT22;6493;50.928;7.172;2023-06-19T20:08:48;23.40;38.10
12849;DHT22;6493;50.928;7.172;2023-06-19T20:13:53;23.30;37.90
12849;DHT22;6493;50.928;7.172;2023-06-19T20:18:57;23.10;38.00
12849;DHT22;6493;50.928;7.172;2023-06-19T20:24:00;22.90;38.10
12849;DHT22;6493;50.928;7.172;2023-06-19T20:29:05;22.80;38.40
12849;DHT22;6493;50.928;7.172;2023-06-19T20:34:09;22.70;38.50
12849;DHT22;6493;50.928;7.172;2023-06-19T20:39:13;22.60;38.50
12849;DHT22;6493;50.928;7.172;2023-06-19T20:44:18;22.60;38.70
12849;DHT22;6493;50.928;7.172;2023-06-19T20:49:22;22.60;38.80
12849;DHT22;6493;50.928;7.172;2023-06-19T20:54:26;22.60;38.80
12849;DHT22;6493;50.928;7.172;2023-06-19T20:59:31;22.50;38.80
12849;DHT22;6493;50.928;7.172;2023-06-19T21:04:35;22.40;39.50
12849;DHT22;6493;50.928;7.172;2023-06-19T21:09:39;22.40;39.10
12849;DHT22;6493;50.928;7.172;2023-06-19T21:14:44;22.30;39.10
12849;DHT22;6493;50.928;7.172;2023-06-19T21:19:48;22.30;39.40
12849;DHT22;6493;50.928;7.172;2023-06-19T21:24:51;22.20;39.30
12849;DHT22;6493;50.928;7.172;2023-06-19T21:29:56;22.20;39.40
12849;DHT22;6493;50.928;7.172;2023-06-19T21:35:00;22.00;39.40
12849;DHT22;6493;50.928;7.172;2023-06-19T21:40:05;22.00;39.60
12849;DHT22;6493;50.928;7.172;2023-06-19T21:45:10;21.90;39.70
12849;DHT22;6493;50.928;7.172;2023-06-19T21:50:14;21.90;39.80
12849;DHT22;6493;50.928;7.172;2023-06-19T21:55:19;21.80;39.90
12849;DHT22;6493;50.928;7.172;2023-06-19T22:00:24;21.70;39.90
12849;DHT22;6493;50.928;7.172;2023-06-19T22:05:29;21.70;40.00
12849;DHT22;6493;50.928;7.172;2023-06-19T22:10:33;21.60;40.00
12849;DHT22;6493;50.928;7.172;2023-06-19T22:15:38;21.60;40.10
12849;DHT22;6493;50.928;7.172;2023-06-19T22:20:42;21.60;40.30
12849;DHT22;6493;50.928;7.172;2023-06-19T22:25:45;21.50;40.20
12849;DHT22;6493;50.928;7.172;2023-06-19T22:30:50;21.40;40.30
12849;DHT22;6493;50.928;7.172;2023-06-19T22:35:54;21.30;40.40
12849;DHT22;6493;50.928;7.172;2023-06-19T22:40:58;21.30;40.60
12849;DHT22;6493;50.928;7.172;2023-06-19T22:46:03;21.20;40.60
12849;DHT22;6493;50.928;7.172;2023-06-19T22:51:06;21.10;40.80
12849;DHT22;6493;50.928;7.172;2023-06-19T22:56:10;21.10;40.80
12849;DHT22;6493;50.928;7.172;2023-06-19T23:01:15;21.10;40.90
12849;DHT22;6493;50.928;7.172;2023-06-19T23:06:27;21.00;41.00
12849;DHT22;6493;50.928;7.172;2023-06-19T23:11:31;21.00;41.00
12849;DHT22;6493;50.928;7.172;2023-06-19T23:16:35;20.90;41.00
12849;DHT22;6493;50.928;7.172;2023-06-19T23:21:42;20.90;41.20
12849;DHT22;6493;50.928;7.172;2023-06-19T23:26:46;20.80;41.20
12849;DHT22;6493;50.928;7.172;2023-06-19T23:31:52;20.70;41.20
12849;DHT22;6493;50.928;7.172;2023-06-19T23:36:56;20.60;41.40
12849;DHT22;6493;50.928;7.172;2023-06-19T23:41:59;20.60;41.50
12849;DHT22;6493;50.928;7.172;2023-06-19T23:47:06;20.60;41.60
12849;DHT22;6493;50.928;7.172;2023-06-19T23:52:10;20.50;41.70
12849;DHT22;6493;50.928;7.172;2023-06-19T23:57:14;20.50;41.60
